sensor_id;sensor_type;location;lat;lon;timestamp;P1;durP1;ratioP1;P2;durP2;ratioP2
553;SDS011;59;48.778;9.156;2022-10-16T00:00:34;2.37;;;1.60;;
553;SDS011;59;48.778;9.156;2022-10-16T00:03:01;2.40;;;1.93;;
553;SDS011;59;48.778;9.156;2022-10-16T00:05:27;2.27;;;1.97;;
553;SDS011;59;48.778;9.156;2022-10-16T00:07:53;2.00;;;1.70;;
553;SDS011;59;48.778;9.156;2022-10-16T00:10:18;1.93;;;1.70;;
553;SDS011;59;48.778;9.156;2022-10-16T00:12:44;2.93;;;2.17;;
553;SDS011;59;48.778;9.156;2022-10-16T00:15:10;2.90;;;2.20;;
553;SDS011;59;48.778;9.156;2022-10-16T00:17:36;3.20;;;2.10;;
553;SDS011;59;48.778;9.156;2022-10-16T00:20:02;4.80;;;2.10;;
553;SDS011;59;48.778;9.156;2022-10-16T00:22:28;4.10;;;2.20;;
553;SDS011;59;48.778;9.156;2022-10-16T00:24:53;2.00;;;1.90;;
553;SDS011;59;48.778;9.156;2022-10-16T00:27:19;2.43;;;1.90;;
553;SDS011;59;48.778;9.156;2022-10-16T00:29:45;2.90;;;2.23;;
553;SDS011;59;48.778;9.156;2022-10-16T00:32:18;1.90;;;1.80;;
553;SDS011;59;48.778;9.156;2022-10-16T00:34:44;2.13;;;1.87;;
553;SDS011;59;48.778;9.156;2022-10-16T00:37:10;1.90;;;1.80;;
553;SDS011;59;48.778;9.156;2022-10-16T00:39:36;2.90;;;2.10;;
553;SDS011;59;48.778;9.156;2022-10-16T00:42:02;2.40;;;2.00;;
553;SDS011;59;48.778;9.156;2022-10-16T00:47:34;1.90;;;1.77;;
553;SDS011;59;48.778;9.156;2022-10-16T00:50:08;2.30;;;1.80;;
553;SDS011;59;48.778;9.156;2022-10-16T00:52:36;2.00;;;1.93;;
553;SDS011;59;48.778;9.156;2022-10-16T00:55:05;1.77;;;1.60;;
553;SDS011;59;48.778;9.156;2022-10-16T00:57:31;1.93;;;1.90;;
553;SDS011;59;48.778;9.156;2022-10-16T00:59:57;2.00;;;1.70;;
553;SDS011;59;48.778;9.156;2022-10-16T01:02:23;1.77;;;1.63;;
553;SDS011;59;48.778;9.156;2022-10-16T01:04:52;2.10;;;1.30;;
553;SDS011;59;48.778;9.156;2022-10-16T01:13:24;2.13;;;1.97;;
553;SDS011;59;48.778;9.156;2022-10-16T01:15:56;2.20;;;1.90;;
553;SDS011;59;48.778;9.156;2022-10-16T01:18:34;3.53;;;1.80;;
553;SDS011;59;48.778;9.156;2022-10-16T01:21:04;2.97;;;2.07;;
553;SDS011;59;48.778;9.156;2022-10-16T01:26:30;1.63;;;1.63;;
553;SDS011;59;48.778;9.156;2022-10-16T01:29:20;1.90;;;1.80;;
553;SDS011;59;48.778;9.156;2022-10-16T01:31:45;1.83;;;1.63;;
553;SDS011;59;48.778;9.156;2022-10-16T01:34:15;2.77;;;2.00;;
553;SDS011;59;48.778;9.156;2022-10-16T01:36:51;2.00;;;1.70;;
553;SDS011;59;48.778;9.156;2022-10-16T01:39:20;2.20;;;2.00;;
553;SDS011;59;48.778;9.156;2022-10-16T01:41:55;2.70;;;1.60;;
553;SDS011;59;48.778;9.156;2022-10-16T01:44:29;2.53;;;1.73;;
553;SDS011;59;48.778;9.156;2022-10-16T01:46:56;2.20;;;1.97;;
553;SDS011;59;48.778;9.156;2022-10-16T01:49:23;1.83;;;1.60;;
553;SDS011;59;48.778;9.156;2022-10-16T01:51:54;1.77;;;1.67;;
553;SDS011;59;48.778;9.156;2022-10-16T01:54:22;1.80;;;1.70;;
553;SDS011;59;48.778;9.156;2022-10-16T01:56:48;1.70;;;1.50;;
553;SDS011;59;48.778;9.156;2022-10-16T01:59:16;1.60;;;1.47;;
553;SDS011;59;48.778;9.156;2022-10-16T02:01:45;1.60;;;1.40;;
553;SDS011;59;48.778;9.156;2022-10-16T02:04:18;3.53;;;1.67;;
553;SDS011;59;48.778;9.156;2022-10-16T02:06:48;1.70;;;1.70;;
553;SDS011;59;48.778;9.156;2022-10-16T02:09:14;2.00;;;1.73;;
553;SDS011;59;48.778;9.156;2022-10-16T02:11:42;1.60;;;1.53;;
553;SDS011;59;48.778;9.156;2022-10-16T02:14:08;1.97;;;1.80;;
553;SDS011;59;48.778;9.156;2022-10-16T02:16:44;2.10;;;1.40;;
553;SDS011;59;48.778;9.156;2022-10-16T02:19:13;1.90;;;1.73;;
553;SDS011;59;48.778;9.156;2022-10-16T02:21:42;3.40;;;1.63;;
553;SDS011;59;48.778;9.156;2022-10-16T02:29:33;2.00;;;1.67;;
553;SDS011;59;48.778;9.156;2022-10-16T02:32:13;1.93;;;1.60;;
553;SDS011;59;48.778;9.156;2022-10-16T02:34:41;2.30;;;1.70;;
553;SDS011;59;48.778;9.156;2022-10-16T02:37:07;3.60;;;1.93;;
553;SDS011;59;48.778;9.156;2022-10-16T02:39:33;2.70;;;1.83;;
553;SDS011;59;48.778;9.156;2022-10-16T02:41:59;2.40;;;1.90;;
553;SDS011;59;48.778;9.156;2022-10-16T02:44:25;2.40;;;1.70;;
553;SDS011;59;48.778;9.156;2022-10-16T02:46:51;3.60;;;1.60;;
553;SDS011;59;48.778;9.156;2022-10-16T02:49:17;4.20;;;1.80;;
553;SDS011;59;48.778;9.156;2022-10-16T02:51:43;2.93;;;1.67;;
553;SDS011;59;48.778;9.156;2022-10-16T02:54:09;1.70;;;1.60;;
553;SDS011;59;48.778;9.156;2022-10-16T02:56:34;5.17;;;1.90;;
553;SDS011;59;48.778;9.156;2022-10-16T02:59:00;2.27;;;1.77;;
553;SDS011;59;48.778;9.156;2022-10-16T03:01:26;2.70;;;1.70;;
553;SDS011;59;48.778;9.156;2022-10-16T03:03:51;2.50;;;1.63;;
553;SDS011;59;48.778;9.156;2022-10-16T03:06:17;1.70;;;1.50;;
553;SDS011;59;48.778;9.156;2022-10-16T03:08:43;2.03;;;1.77;;
553;SDS011;59;48.778;9.156;2022-10-16T03:11:08;2.03;;;1.60;;
553;SDS011;59;48.778;9.156;2022-10-16T03:13:34;2.73;;;1.60;;
553;SDS011;59;48.778;9.156;2022-10-16T03:16:00;2.37;;;1.40;;
553;SDS011;59;48.778;9.156;2022-10-16T03:18:25;2.30;;;1.60;;
553;SDS011;59;48.778;9.156;2022-10-16T03:20:51;2.53;;;1.50;;
553;SDS011;59;48.778;9.156;2022-10-16T03:23:17;1.90;;;1.63;;
553;SDS011;59;48.778;9.156;2022-10-16T03:25:43;1.83;;;1.73;;
553;SDS011;59;48.778;9.156;2022-10-16T03:28:09;1.90;;;1.60;;
553;SDS011;59;48.778;9.156;2022-10-16T03:30:34;1.30;;;1.30;;
553;SDS011;59;48.778;9.156;2022-10-16T03:33:00;1.60;;;1.50;;
553;SDS011;59;48.778;9.156;2022-10-16T03:35:26;1.90;;;1.80;;
553;SDS011;59;48.778;9.156;2022-10-16T03:37:51;1.90;;;1.57;;
553;SDS011;59;48.778;9.156;2022-10-16T03:40:17;2.50;;;1.80;;
553;SDS011;59;48.778;9.156;2022-10-16T03:42:43;2.10;;;1.60;;
553;SDS011;59;48.778;9.156;2022-10-16T03:45:09;1.90;;;1.70;;
553;SDS011;59;48.778;9.156;2022-10-16T03:47:35;1.67;;;1.50;;
553;SDS011;59;48.778;9.156;2022-10-16T03:50:01;1.63;;;1.43;;
553;SDS011;59;48.778;9.156;2022-10-16T03:52:28;2.33;;;1.50;;
553;SDS011;59;48.778;9.156;2022-10-16T03:54:53;1.63;;;1.60;;
553;SDS011;59;48.778;9.156;2022-10-16T03:57:19;2.37;;;1.70;;
553;SDS011;59;48.778;9.156;2022-10-16T03:59:45;1.40;;;1.30;;
553;SDS011;59;48.778;9.156;2022-10-16T04:02:11;1.73;;;1.50;;
553;SDS011;59;48.778;9.156;2022-10-16T04:04:37;2.33;;;1.67;;
553;SDS011;59;48.778;9.156;2022-10-16T04:07:02;1.57;;;1.40;;
553;SDS011;59;48.778;9.156;2022-10-16T04:09:29;1.80;;;1.40;;
553;SDS011;59;48.778;9.156;2022-10-16T04:11:55;1.30;;;1.30;;
553;SDS011;59;48.778;9.156;2022-10-16T04:14:21;1.67;;;1.50;;
553;SDS011;59;48.778;9.156;2022-10-16T04:16:46;1.47;;;1.40;;
553;SDS011;59;48.778;9.156;2022-10-16T04:19:12;1.57;;;1.47;;
553;SDS011;59;48.778;9.156;2022-10-16T04:21:38;1.93;;;1.40;;
553;SDS011;59;48.778;9.156;2022-10-16T04:24:04;1.40;;;1.30;;
553;SDS011;59;48.778;9.156;2022-10-16T04:26:29;1.63;;;1.37;;
553;SDS011;59;48.778;9.156;2022-10-16T04:28:55;1.60;;;1.40;;
553;SDS011;59;48.778;9.156;2022-10-16T04:31:21;2.40;;;1.80;;
553;SDS011;59;48.778;9.156;2022-10-16T04:33:47;2.20;;;1.50;;
553;SDS011;59;48.778;9.156;2022-10-16T04:36:13;1.40;;;1.40;;
553;SDS011;59;48.778;9.156;2022-10-16T04:38:39;2.43;;;1.83;;
553;SDS011;59;48.778;9.156;2022-10-16T04:41:05;2.63;;;1.83;;
553;SDS011;59;48.778;9.156;2022-10-16T04:43:31;1.93;;;1.70;;
553;SDS011;59;48.778;9.156;2022-10-16T04:45:57;2.17;;;1.67;;
553;SDS011;59;48.778;9.156;2022-10-16T04:48:23;2.17;;;1.73;;
553;SDS011;59;48.778;9.156;2022-10-16T04:50:48;1.87;;;1.53;;
553;SDS011;59;48.778;9.156;2022-10-16T04:53:15;1.60;;;1.57;;
553;SDS011;59;48.778;9.156;2022-10-16T04:55:41;2.80;;;1.93;;
553;SDS011;59;48.778;9.156;2022-10-16T04:58:07;2.00;;;1.70;;
553;SDS011;59;48.778;9.156;2022-10-16T05:00:33;2.07;;;1.73;;
553;SDS011;59;48.778;9.156;2022-10-16T05:02:59;2.90;;;2.00;;
553;SDS011;59;48.778;9.156;2022-10-16T05:05:25;1.80;;;1.70;;
553;SDS011;59;48.778;9.156;2022-10-16T05:07:51;2.10;;;1.87;;
553;SDS011;59;48.778;9.156;2022-10-16T05:10:18;2.57;;;1.90;;
553;SDS011;59;48.778;9.156;2022-10-16T05:12:44;1.73;;;1.60;;
553;SDS011;59;48.778;9.156;2022-10-16T05:15:09;3.10;;;1.90;;
553;SDS011;59;48.778;9.156;2022-10-16T05:17:35;2.23;;;1.70;;
553;SDS011;59;48.778;9.156;2022-10-16T05:20:01;1.97;;;1.67;;
553;SDS011;59;48.778;9.156;2022-10-16T05:22:28;1.87;;;1.60;;
553;SDS011;59;48.778;9.156;2022-10-16T05:24:53;1.90;;;1.70;;
553;SDS011;59;48.778;9.156;2022-10-16T05:27:19;3.00;;;1.80;;
553;SDS011;59;48.778;9.156;2022-10-16T05:29:45;3.03;;;1.80;;
553;SDS011;59;48.778;9.156;2022-10-16T05:32:12;2.10;;;1.83;;
553;SDS011;59;48.778;9.156;2022-10-16T05:34:38;2.27;;;1.97;;
553;SDS011;59;48.778;9.156;2022-10-16T05:37:04;2.20;;;1.93;;
553;SDS011;59;48.778;9.156;2022-10-16T05:39:30;3.60;;;1.80;;
553;SDS011;59;48.778;9.156;2022-10-16T05:41:55;2.23;;;1.80;;
553;SDS011;59;48.778;9.156;2022-10-16T05:44:21;1.93;;;1.90;;
553;SDS011;59;48.778;9.156;2022-10-16T05:46:47;2.00;;;1.80;;
553;SDS011;59;48.778;9.156;2022-10-16T05:49:12;4.50;;;1.80;;
553;SDS011;59;48.778;9.156;2022-10-16T05:51:38;2.50;;;1.73;;
553;SDS011;59;48.778;9.156;2022-10-16T05:54:04;3.10;;;2.27;;
553;SDS011;59;48.778;9.156;2022-10-16T05:56:30;2.97;;;2.00;;
553;SDS011;59;48.778;9.156;2022-10-16T05:58:55;1.70;;;1.67;;
553;SDS011;59;48.778;9.156;2022-10-16T06:01:21;2.80;;;2.10;;
553;SDS011;59;48.778;9.156;2022-10-16T06:03:49;2.20;;;2.00;;
553;SDS011;59;48.778;9.156;2022-10-16T06:06:16;2.47;;;2.27;;
553;SDS011;59;48.778;9.156;2022-10-16T06:08:44;2.50;;;1.90;;
553;SDS011;59;48.778;9.156;2022-10-16T06:11:11;3.10;;;2.23;;
553;SDS011;59;48.778;9.156;2022-10-16T06:13:38;2.73;;;2.37;;
553;SDS011;59;48.778;9.156;2022-10-16T06:16:06;1.90;;;1.80;;
553;SDS011;59;48.778;9.156;2022-10-16T06:18:33;1.97;;;1.90;;
553;SDS011;59;48.778;9.156;2022-10-16T06:20:58;3.43;;;2.10;;
553;SDS011;59;48.778;9.156;2022-10-16T06:23:24;2.20;;;2.00;;
553;SDS011;59;48.778;9.156;2022-10-16T06:25:50;3.00;;;2.27;;
553;SDS011;59;48.778;9.156;2022-10-16T06:28:16;2.10;;;1.90;;
553;SDS011;59;48.778;9.156;2022-10-16T06:30:42;2.63;;;2.30;;
553;SDS011;59;48.778;9.156;2022-10-16T06:33:11;2.60;;;2.17;;
553;SDS011;59;48.778;9.156;2022-10-16T06:35:36;2.70;;;2.00;;
553;SDS011;59;48.778;9.156;2022-10-16T06:38:05;3.50;;;2.50;;
553;SDS011;59;48.778;9.156;2022-10-16T06:40:31;2.30;;;2.00;;
553;SDS011;59;48.778;9.156;2022-10-16T06:42:57;2.50;;;2.10;;
553;SDS011;59;48.778;9.156;2022-10-16T06:45:22;3.50;;;2.37;;
553;SDS011;59;48.778;9.156;2022-10-16T06:47:48;3.00;;;2.20;;
553;SDS011;59;48.778;9.156;2022-10-16T06:50:14;2.90;;;2.17;;
553;SDS011;59;48.778;9.156;2022-10-16T06:52:39;2.80;;;2.20;;
553;SDS011;59;48.778;9.156;2022-10-16T06:55:05;2.80;;;2.23;;
553;SDS011;59;48.778;9.156;2022-10-16T06:57:31;2.90;;;2.30;;
553;SDS011;59;48.778;9.156;2022-10-16T06:59:57;2.00;;;1.93;;
553;SDS011;59;48.778;9.156;2022-10-16T07:02:22;3.97;;;2.20;;
553;SDS011;59;48.778;9.156;2022-10-16T07:04:48;2.60;;;2.20;;
553;SDS011;59;48.778;9.156;2022-10-16T07:07:15;2.90;;;1.93;;
553;SDS011;59;48.778;9.156;2022-10-16T07:09:40;2.90;;;2.20;;
553;SDS011;59;48.778;9.156;2022-10-16T07:12:06;1.73;;;1.63;;
553;SDS011;59;48.778;9.156;2022-10-16T07:14:32;2.20;;;2.00;;
553;SDS011;59;48.778;9.156;2022-10-16T07:16:57;2.20;;;2.00;;
553;SDS011;59;48.778;9.156;2022-10-16T07:19:23;2.17;;;2.03;;
553;SDS011;59;48.778;9.156;2022-10-16T07:21:50;2.60;;;2.30;;
553;SDS011;59;48.778;9.156;2022-10-16T07:24:16;2.63;;;2.00;;
553;SDS011;59;48.778;9.156;2022-10-16T07:26:43;2.20;;;1.90;;
553;SDS011;59;48.778;9.156;2022-10-16T07:29:14;2.50;;;2.07;;
553;SDS011;59;48.778;9.156;2022-10-16T07:31:41;3.20;;;2.47;;
553;SDS011;59;48.778;9.156;2022-10-16T07:34:08;2.03;;;1.87;;
553;SDS011;59;48.778;9.156;2022-10-16T07:36:34;2.53;;;2.20;;
553;SDS011;59;48.778;9.156;2022-10-16T07:39:00;2.97;;;2.10;;
553;SDS011;59;48.778;9.156;2022-10-16T07:41:26;27.60;;;20.47;;
553;SDS011;59;48.778;9.156;2022-10-16T07:43:52;41.33;;;29.00;;
553;SDS011;59;48.778;9.156;2022-10-16T07:46:19;37.87;;;28.40;;
553;SDS011;59;48.778;9.156;2022-10-16T07:48:46;33.20;;;23.80;;
553;SDS011;59;48.778;9.156;2022-10-16T07:51:13;26.33;;;20.03;;
553;SDS011;59;48.778;9.156;2022-10-16T07:53:40;22.27;;;17.60;;
553;SDS011;59;48.778;9.156;2022-10-16T07:56:07;21.97;;;16.07;;
553;SDS011;59;48.778;9.156;2022-10-16T07:58:33;19.93;;;15.50;;
553;SDS011;59;48.778;9.156;2022-10-16T08:01:09;17.23;;;13.20;;
553;SDS011;59;48.778;9.156;2022-10-16T08:03:36;15.33;;;11.53;;
553;SDS011;59;48.778;9.156;2022-10-16T08:06:02;12.87;;;10.03;;
553;SDS011;59;48.778;9.156;2022-10-16T08:08:28;11.40;;;8.57;;
553;SDS011;59;48.778;9.156;2022-10-16T08:10:54;9.43;;;7.00;;
553;SDS011;59;48.778;9.156;2022-10-16T08:13:20;6.53;;;5.13;;
553;SDS011;59;48.778;9.156;2022-10-16T08:15:46;5.73;;;4.63;;
553;SDS011;59;48.778;9.156;2022-10-16T08:18:12;4.87;;;3.37;;
553;SDS011;59;48.778;9.156;2022-10-16T08:20:39;3.53;;;2.90;;
553;SDS011;59;48.778;9.156;2022-10-16T08:23:05;3.53;;;2.50;;
553;SDS011;59;48.778;9.156;2022-10-16T08:25:33;2.53;;;2.37;;
553;SDS011;59;48.778;9.156;2022-10-16T08:28:00;3.53;;;2.50;;
553;SDS011;59;48.778;9.156;2022-10-16T08:30:25;4.47;;;2.27;;
553;SDS011;59;48.778;9.156;2022-10-16T08:32:51;7.63;;;2.30;;
553;SDS011;59;48.778;9.156;2022-10-16T08:35:17;2.63;;;2.00;;
553;SDS011;59;48.778;9.156;2022-10-16T08:37:43;3.40;;;2.03;;
553;SDS011;59;48.778;9.156;2022-10-16T08:40:16;3.40;;;2.10;;
553;SDS011;59;48.778;9.156;2022-10-16T08:51:31;3.13;;;2.57;;
553;SDS011;59;48.778;9.156;2022-10-16T08:53:59;17.13;;;12.63;;
553;SDS011;59;48.778;9.156;2022-10-16T08:56:27;9.87;;;7.20;;
553;SDS011;59;48.778;9.156;2022-10-16T08:58:53;4.93;;;3.80;;
553;SDS011;59;48.778;9.156;2022-10-16T09:01:20;5.20;;;3.10;;
553;SDS011;59;48.778;9.156;2022-10-16T09:12:32;4.90;;;2.23;;
553;SDS011;59;48.778;9.156;2022-10-16T09:18:12;3.03;;;2.67;;
553;SDS011;59;48.778;9.156;2022-10-16T09:23:27;2.33;;;1.73;;
553;SDS011;59;48.778;9.156;2022-10-16T09:25:54;5.07;;;2.30;;
553;SDS011;59;48.778;9.156;2022-10-16T09:28:21;4.67;;;2.70;;
553;SDS011;59;48.778;9.156;2022-10-16T09:30:47;2.77;;;2.30;;
553;SDS011;59;48.778;9.156;2022-10-16T09:33:16;5.97;;;4.67;;
553;SDS011;59;48.778;9.156;2022-10-16T09:35:50;6.07;;;4.03;;
553;SDS011;59;48.778;9.156;2022-10-16T09:38:30;9.13;;;2.47;;
553;SDS011;59;48.778;9.156;2022-10-16T09:41:01;4.23;;;2.30;;
553;SDS011;59;48.778;9.156;2022-10-16T09:46:32;3.90;;;2.03;;
553;SDS011;59;48.778;9.156;2022-10-16T09:49:00;2.53;;;2.30;;
553;SDS011;59;48.778;9.156;2022-10-16T09:51:29;4.30;;;2.30;;
553;SDS011;59;48.778;9.156;2022-10-16T09:54:21;2.30;;;1.80;;
553;SDS011;59;48.778;9.156;2022-10-16T09:56:46;8.10;;;2.33;;
553;SDS011;59;48.778;9.156;2022-10-16T09:59:20;3.33;;;2.07;;
553;SDS011;59;48.778;9.156;2022-10-16T10:01:54;5.90;;;2.30;;
553;SDS011;59;48.778;9.156;2022-10-16T10:04:24;4.53;;;2.63;;
553;SDS011;59;48.778;9.156;2022-10-16T10:06:54;3.20;;;2.27;;
553;SDS011;59;48.778;9.156;2022-10-16T10:09:24;3.60;;;2.40;;
553;SDS011;59;48.778;9.156;2022-10-16T10:11:52;74.47;;;50.03;;
553;SDS011;59;48.778;9.156;2022-10-16T10:14:21;21.30;;;15.47;;
553;SDS011;59;48.778;9.156;2022-10-16T10:16:52;4.83;;;3.17;;
553;SDS011;59;48.778;9.156;2022-10-16T10:19:27;3.37;;;2.23;;
553;SDS011;59;48.778;9.156;2022-10-16T10:21:53;3.47;;;2.03;;
553;SDS011;59;48.778;9.156;2022-10-16T10:24:18;3.73;;;3.10;;
553;SDS011;59;48.778;9.156;2022-10-16T10:26:49;4.33;;;2.60;;
553;SDS011;59;48.778;9.156;2022-10-16T10:32:00;3.83;;;2.53;;
553;SDS011;59;48.778;9.156;2022-10-16T10:40:19;2.23;;;2.07;;
553;SDS011;59;48.778;9.156;2022-10-16T10:45:46;3.47;;;1.97;;
553;SDS011;59;48.778;9.156;2022-10-16T10:51:16;2.00;;;1.80;;
553;SDS011;59;48.778;9.156;2022-10-16T10:56:49;3.10;;;2.47;;
553;SDS011;59;48.778;9.156;2022-10-16T11:07:52;2.67;;;2.17;;
553;SDS011;59;48.778;9.156;2022-10-16T11:10:26;2.17;;;2.00;;
553;SDS011;59;48.778;9.156;2022-10-16T11:12:58;4.43;;;2.70;;
553;SDS011;59;48.778;9.156;2022-10-16T11:15:44;3.13;;;2.50;;
553;SDS011;59;48.778;9.156;2022-10-16T11:18:27;3.23;;;2.40;;
553;SDS011;59;48.778;9.156;2022-10-16T11:21:06;2.87;;;2.27;;
553;SDS011;59;48.778;9.156;2022-10-16T11:23:42;3.60;;;2.63;;
553;SDS011;59;48.778;9.156;2022-10-16T11:26:14;5.80;;;2.57;;
553;SDS011;59;48.778;9.156;2022-10-16T11:28:53;3.20;;;2.20;;
553;SDS011;59;48.778;9.156;2022-10-16T11:31:35;3.50;;;2.57;;
553;SDS011;59;48.778;9.156;2022-10-16T11:39:46;3.17;;;2.60;;
553;SDS011;59;48.778;9.156;2022-10-16T11:45:23;5.70;;;4.70;;
553;SDS011;59;48.778;9.156;2022-10-16T11:50:29;8.73;;;6.83;;
553;SDS011;59;48.778;9.156;2022-10-16T11:53:00;6.97;;;5.73;;
553;SDS011;59;48.778;9.156;2022-10-16T11:55:31;5.80;;;4.67;;
553;SDS011;59;48.778;9.156;2022-10-16T11:58:06;6.00;;;4.60;;
553;SDS011;59;48.778;9.156;2022-10-16T12:00:43;5.97;;;4.50;;
553;SDS011;59;48.778;9.156;2022-10-16T12:05:52;4.10;;;3.17;;
553;SDS011;59;48.778;9.156;2022-10-16T12:08:20;4.27;;;2.53;;
553;SDS011;59;48.778;9.156;2022-10-16T12:10:46;2.50;;;2.20;;
553;SDS011;59;48.778;9.156;2022-10-16T12:13:33;3.13;;;1.83;;
553;SDS011;59;48.778;9.156;2022-10-16T12:18:30;2.53;;;2.10;;
553;SDS011;59;48.778;9.156;2022-10-16T12:20:56;3.17;;;2.50;;
553;SDS011;59;48.778;9.156;2022-10-16T12:23:51;3.57;;;2.80;;
553;SDS011;59;48.778;9.156;2022-10-16T12:26:24;2.83;;;2.37;;
553;SDS011;59;48.778;9.156;2022-10-16T12:28:50;2.77;;;2.37;;
553;SDS011;59;48.778;9.156;2022-10-16T12:31:16;2.57;;;2.23;;
553;SDS011;59;48.778;9.156;2022-10-16T12:33:56;3.00;;;2.43;;
553;SDS011;59;48.778;9.156;2022-10-16T12:36:32;2.50;;;2.10;;
553;SDS011;59;48.778;9.156;2022-10-16T12:38:59;2.53;;;2.20;;
553;SDS011;59;48.778;9.156;2022-10-16T12:41:26;2.63;;;2.03;;
553;SDS011;59;48.778;9.156;2022-10-16T12:43:56;1.73;;;1.67;;
553;SDS011;59;48.778;9.156;2022-10-16T12:51:38;2.00;;;1.83;;
553;SDS011;59;48.778;9.156;2022-10-16T13:22:24;1.60;;;1.50;;
553;SDS011;59;48.778;9.156;2022-10-16T13:27:07;35.10;;;26.43;;
553;SDS011;59;48.778;9.156;2022-10-16T13:29:36;28.50;;;22.23;;
553;SDS011;59;48.778;9.156;2022-10-16T13:32:09;20.30;;;15.27;;
553;SDS011;59;48.778;9.156;2022-10-16T13:34:45;18.30;;;13.70;;
553;SDS011;59;48.778;9.156;2022-10-16T13:37:18;10.03;;;7.90;;
553;SDS011;59;48.778;9.156;2022-10-16T13:39:45;8.93;;;7.17;;
553;SDS011;59;48.778;9.156;2022-10-16T13:44:50;7.10;;;5.73;;
553;SDS011;59;48.778;9.156;2022-10-16T13:47:21;6.70;;;5.30;;
553;SDS011;59;48.778;9.156;2022-10-16T13:49:59;5.33;;;4.63;;
553;SDS011;59;48.778;9.156;2022-10-16T13:52:25;5.60;;;4.50;;
553;SDS011;59;48.778;9.156;2022-10-16T13:58:13;3.70;;;3.57;;
553;SDS011;59;48.778;9.156;2022-10-16T14:00:40;4.23;;;3.60;;
553;SDS011;59;48.778;9.156;2022-10-16T14:03:17;3.83;;;3.13;;
553;SDS011;59;48.778;9.156;2022-10-16T14:06:02;4.70;;;3.83;;
553;SDS011;59;48.778;9.156;2022-10-16T14:08:29;4.60;;;3.30;;
553;SDS011;59;48.778;9.156;2022-10-16T14:10:56;4.30;;;3.70;;
553;SDS011;59;48.778;9.156;2022-10-16T14:13:29;3.40;;;2.90;;
553;SDS011;59;48.778;9.156;2022-10-16T14:16:06;3.20;;;2.63;;
553;SDS011;59;48.778;9.156;2022-10-16T14:18:34;3.40;;;3.07;;
553;SDS011;59;48.778;9.156;2022-10-16T14:21:04;2.77;;;2.57;;
553;SDS011;59;48.778;9.156;2022-10-16T14:23:37;3.17;;;2.67;;
553;SDS011;59;48.778;9.156;2022-10-16T14:28:38;2.47;;;2.10;;
553;SDS011;59;48.778;9.156;2022-10-16T14:31:27;2.57;;;2.30;;
553;SDS011;59;48.778;9.156;2022-10-16T14:33:55;2.67;;;2.23;;
553;SDS011;59;48.778;9.156;2022-10-16T14:36:21;2.60;;;2.20;;
553;SDS011;59;48.778;9.156;2022-10-16T14:38:58;2.33;;;2.10;;
553;SDS011;59;48.778;9.156;2022-10-16T14:41:31;2.27;;;2.10;;
553;SDS011;59;48.778;9.156;2022-10-16T14:44:01;2.17;;;2.03;;
553;SDS011;59;48.778;9.156;2022-10-16T14:46:29;2.50;;;2.10;;
553;SDS011;59;48.778;9.156;2022-10-16T14:51:36;2.67;;;2.30;;
553;SDS011;59;48.778;9.156;2022-10-16T14:54:03;2.60;;;2.40;;
553;SDS011;59;48.778;9.156;2022-10-16T14:56:30;2.33;;;2.20;;
553;SDS011;59;48.778;9.156;2022-10-16T14:58:59;3.47;;;2.37;;
553;SDS011;59;48.778;9.156;2022-10-16T15:01:25;2.40;;;2.00;;
553;SDS011;59;48.778;9.156;2022-10-16T15:03:51;34.10;;;25.77;;
553;SDS011;59;48.778;9.156;2022-10-16T15:06:19;49.57;;;35.80;;
553;SDS011;59;48.778;9.156;2022-10-16T15:08:45;43.43;;;32.10;;
553;SDS011;59;48.778;9.156;2022-10-16T15:11:15;35.97;;;26.57;;
553;SDS011;59;48.778;9.156;2022-10-16T15:13:41;35.90;;;25.13;;
553;SDS011;59;48.778;9.156;2022-10-16T15:16:11;31.87;;;22.13;;
553;SDS011;59;48.778;9.156;2022-10-16T15:18:37;26.50;;;19.47;;
553;SDS011;59;48.778;9.156;2022-10-16T15:21:03;21.67;;;16.23;;
553;SDS011;59;48.778;9.156;2022-10-16T15:23:29;19.90;;;14.50;;
553;SDS011;59;48.778;9.156;2022-10-16T15:25:55;15.13;;;11.77;;
553;SDS011;59;48.778;9.156;2022-10-16T15:28:21;15.87;;;11.70;;
553;SDS011;59;48.778;9.156;2022-10-16T15:30:52;13.50;;;11.20;;
553;SDS011;59;48.778;9.156;2022-10-16T15:33:23;13.47;;;9.80;;
553;SDS011;59;48.778;9.156;2022-10-16T15:35:52;12.30;;;9.30;;
553;SDS011;59;48.778;9.156;2022-10-16T15:38:21;10.23;;;8.00;;
553;SDS011;59;48.778;9.156;2022-10-16T15:40:47;9.47;;;7.67;;
553;SDS011;59;48.778;9.156;2022-10-16T15:43:14;8.20;;;6.57;;
553;SDS011;59;48.778;9.156;2022-10-16T15:45:40;8.90;;;6.70;;
553;SDS011;59;48.778;9.156;2022-10-16T15:48:06;8.30;;;6.20;;
553;SDS011;59;48.778;9.156;2022-10-16T15:50:33;6.43;;;5.30;;
553;SDS011;59;48.778;9.156;2022-10-16T15:52:59;7.20;;;5.17;;
553;SDS011;59;48.778;9.156;2022-10-16T15:55:25;6.70;;;5.00;;
553;SDS011;59;48.778;9.156;2022-10-16T15:57:50;6.63;;;4.90;;
553;SDS011;59;48.778;9.156;2022-10-16T16:00:17;5.77;;;4.70;;
553;SDS011;59;48.778;9.156;2022-10-16T16:02:50;5.00;;;4.43;;
553;SDS011;59;48.778;9.156;2022-10-16T16:05:17;4.77;;;3.93;;
553;SDS011;59;48.778;9.156;2022-10-16T16:07:43;5.30;;;4.53;;
553;SDS011;59;48.778;9.156;2022-10-16T16:10:09;4.87;;;4.10;;
553;SDS011;59;48.778;9.156;2022-10-16T16:12:36;4.90;;;3.77;;
553;SDS011;59;48.778;9.156;2022-10-16T16:15:03;5.50;;;4.27;;
553;SDS011;59;48.778;9.156;2022-10-16T16:17:30;5.20;;;4.47;;
553;SDS011;59;48.778;9.156;2022-10-16T16:19:56;5.20;;;4.07;;
553;SDS011;59;48.778;9.156;2022-10-16T16:22:22;6.23;;;4.57;;
553;SDS011;59;48.778;9.156;2022-10-16T16:24:48;21.90;;;17.00;;
553;SDS011;59;48.778;9.156;2022-10-16T16:27:14;26.60;;;17.90;;
553;SDS011;59;48.778;9.156;2022-10-16T16:29:40;18.03;;;13.77;;
553;SDS011;59;48.778;9.156;2022-10-16T16:32:06;18.50;;;14.07;;
553;SDS011;59;48.778;9.156;2022-10-16T16:34:32;15.20;;;12.20;;
553;SDS011;59;48.778;9.156;2022-10-16T16:36:57;14.60;;;11.53;;
553;SDS011;59;48.778;9.156;2022-10-16T16:39:23;14.20;;;10.70;;
553;SDS011;59;48.778;9.156;2022-10-16T16:41:49;11.53;;;9.07;;
553;SDS011;59;48.778;9.156;2022-10-16T16:44:15;10.67;;;8.30;;
553;SDS011;59;48.778;9.156;2022-10-16T16:46:42;11.40;;;8.30;;
553;SDS011;59;48.778;9.156;2022-10-16T16:49:12;9.17;;;7.43;;
553;SDS011;59;48.778;9.156;2022-10-16T16:51:39;7.90;;;6.27;;
553;SDS011;59;48.778;9.156;2022-10-16T16:54:06;7.97;;;6.37;;
553;SDS011;59;48.778;9.156;2022-10-16T16:56:32;8.30;;;6.67;;
553;SDS011;59;48.778;9.156;2022-10-16T16:58:58;7.37;;;6.27;;
553;SDS011;59;48.778;9.156;2022-10-16T17:01:25;5.53;;;5.13;;
553;SDS011;59;48.778;9.156;2022-10-16T17:03:53;8.23;;;6.20;;
553;SDS011;59;48.778;9.156;2022-10-16T17:06:20;7.87;;;5.43;;
553;SDS011;59;48.778;9.156;2022-10-16T17:08:48;13.50;;;10.37;;
553;SDS011;59;48.778;9.156;2022-10-16T17:11:16;9.93;;;7.67;;
553;SDS011;59;48.778;9.156;2022-10-16T17:13:52;10.73;;;7.90;;
553;SDS011;59;48.778;9.156;2022-10-16T17:16:19;9.53;;;7.37;;
553;SDS011;59;48.778;9.156;2022-10-16T17:18:45;9.10;;;7.07;;
553;SDS011;59;48.778;9.156;2022-10-16T17:21:11;7.33;;;5.97;;
553;SDS011;59;48.778;9.156;2022-10-16T17:23:37;7.90;;;5.90;;
553;SDS011;59;48.778;9.156;2022-10-16T17:26:07;7.30;;;5.50;;
553;SDS011;59;48.778;9.156;2022-10-16T17:28:36;7.27;;;5.97;;
553;SDS011;59;48.778;9.156;2022-10-16T17:31:09;7.20;;;5.70;;
553;SDS011;59;48.778;9.156;2022-10-16T17:33:39;8.03;;;6.17;;
553;SDS011;59;48.778;9.156;2022-10-16T17:36:05;8.50;;;5.70;;
553;SDS011;59;48.778;9.156;2022-10-16T17:38:31;7.10;;;5.70;;
553;SDS011;59;48.778;9.156;2022-10-16T17:40:57;8.43;;;5.80;;
553;SDS011;59;48.778;9.156;2022-10-16T17:43:23;7.90;;;5.60;;
553;SDS011;59;48.778;9.156;2022-10-16T17:45:48;6.20;;;5.10;;
553;SDS011;59;48.778;9.156;2022-10-16T17:48:14;7.70;;;5.60;;
553;SDS011;59;48.778;9.156;2022-10-16T17:50:41;7.83;;;5.77;;
553;SDS011;59;48.778;9.156;2022-10-16T17:53:07;6.83;;;5.67;;
553;SDS011;59;48.778;9.156;2022-10-16T17:55:38;9.07;;;6.13;;
553;SDS011;59;48.778;9.156;2022-10-16T17:58:07;7.80;;;6.13;;
553;SDS011;59;48.778;9.156;2022-10-16T18:00:33;7.90;;;6.47;;
553;SDS011;59;48.778;9.156;2022-10-16T18:02:59;8.63;;;6.50;;
553;SDS011;59;48.778;9.156;2022-10-16T18:05:25;10.63;;;7.13;;
553;SDS011;59;48.778;9.156;2022-10-16T18:07:50;10.50;;;7.30;;
553;SDS011;59;48.778;9.156;2022-10-16T18:10:17;12.30;;;7.07;;
553;SDS011;59;48.778;9.156;2022-10-16T18:12:42;8.90;;;6.73;;
553;SDS011;59;48.778;9.156;2022-10-16T18:15:08;7.43;;;5.93;;